Time;durP1;ratioP1;P1;durP2;ratioP2;P2;SDS_P1;SDS_P2;PMS_P1;PMS_P2;Temp;Humidity;BMP_temperature;BMP_pressure;BME280_temperature;BME280_humidity;BME280_pressure;Samples;Min_cycle;Max_cycle;Signal;HPM_P1;HPM_P2
2023/04/13 00:00:44;;;;;;;;;;;6.40;99.90;;;;;;5065084;28;20369;-41
2023/04/13 00:03:11;;;;;;;;;;;6.50;99.90;;;;;;5051516;28;20395;-41
2023/04/13 00:05:38;;;;;;;;;;;6.50;99.90;;;;;;5054307;28;19936;-44
2023/04/13 00:08:08;;;;;;;;;;;6.50;99.90;;;;;;5053360;28;19945;-44
2023/04/13 00:10:35;;;;;;;;;;;6.60;99.90;;;;;;5053254;28;19936;-42
2023/04/13 00:13:02;;;;;;;;;;;6.60;99.90;;;;;;5052642;28;20050;-42
2023/04/13 00:15:28;;;;;;;;;;;6.60;99.90;;;;;;5052907;28;20374;-43
2023/04/13 00:17:56;;;;;;;;;;;6.60;99.90;;;;;;5053089;28;20354;-42
2023/04/13 00:20:23;;;;;;;;;;;6.60;99.90;;;;;;5051756;28;19937;-42
2023/04/13 00:22:50;;;;;;;;;;;6.60;99.90;;;;;;5053171;28;20023;-43
2023/04/13 00:25:16;;;;;;;;;;;6.60;99.90;;;;;;5052053;28;20300;-43
2023/04/13 00:27:43;;;;;;;;;;;6.70;99.90;;;;;;5055981;28;20386;-42
2023/04/13 00:30:11;;;;;;;;;;;6.70;99.90;;;;;;5056511;28;20039;-43
2023/04/13 00:32:38;;;;;;;;;;;6.70;99.90;;;;;;5051540;28;19996;-47
2023/04/13 00:35:07;;;;;;;;;;;6.80;99.90;;;;;;5055096;28;20447;-45
2023/04/13 00:37:33;;;;;;;;;;;6.80;99.90;;;;;;5051612;28;20037;-44
2023/04/13 00:40:00;;;;;;;;;;;6.90;99.90;;;;;;5054145;28;19940;-46
2023/04/13 00:42:27;;;;;;;;;;;6.90;99.90;;;;;;5052580;28;19993;-40
2023/04/13 00:44:53;;;;;;;;;;;6.90;99.90;;;;;;5052407;28;19979;-41
2023/04/13 00:47:21;;;;;;;;;;;6.80;99.90;;;;;;5052492;28;19935;-40
2023/04/13 00:49:48;;;;;;;;;;;6.80;99.90;;;;;;5052359;28;19950;-40
2023/04/13 00:52:17;;;;;;;;;;;6.80;99.90;;;;;;5051618;28;20226;-39
2023/04/13 00:54:43;;;;;;;;;;;6.80;99.90;;;;;;5051029;28;20407;-39
2023/04/13 00:57:10;;;;;;;;;;;6.70;99.90;;;;;;5051581;28;20018;-41
2023/04/13 00:59:37;;;;;;;;;;;6.70;99.90;;;;;;5047534;28;19974;-40
2023/04/13 01:02:04;;;;;;;;;;;6.70;99.90;;;;;;5043744;28;20530;-39
2023/04/13 01:04:31;;;;;;;;;;;6.70;99.90;;;;;;5072445;28;19945;-39
2023/04/13 01:06:59;;;;;;;;;;;6.60;99.90;;;;;;5051498;28;20292;-40
2023/04/13 01:09:28;;;;;;;;;;;6.60;99.90;;;;;;5052065;28;20412;-40
2023/04/13 01:11:56;;;;;;;;;;;6.60;99.90;;;;;;5050239;28;20004;-40
2023/04/13 01:14:25;;;;;;;;;;;6.60;99.90;;;;;;5051808;28;19939;-40
2023/04/13 01:16:53;;;;;;;;;;;6.60;99.90;;;;;;5052121;28;20278;-39
2023/04/13 01:19:21;;;;;;;;;;;6.50;99.90;;;;;;5052032;28;20396;-39
2023/04/13 01:21:48;;;;;;;;;;;6.50;99.90;;;;;;5049329;28;19936;-44
2023/04/13 01:24:18;;;;;;;;;;;6.50;99.90;;;;;;5051866;28;20135;-40
2023/04/13 01:26:49;;;;;;;;;;;6.50;99.90;;;;;;5050282;28;19943;-45
2023/04/13 01:29:18;;;;;;;;;;;6.50;99.90;;;;;;5051794;28;19948;-43
2023/04/13 01:31:45;;;;;;;;;;;6.50;99.90;;;;;;5065922;28;19983;-45
2023/04/13 01:34:12;;;;;;;;;;;6.50;99.90;;;;;;5053223;28;19962;-44
2023/04/13 01:36:40;;;;;;;;;;;6.50;99.90;;;;;;5050677;28;19940;-41
2023/04/13 01:39:07;;;;;;;;;;;6.50;99.90;;;;;;5057371;28;19937;-44
2023/04/13 01:41:34;;;;;;;;;;;6.50;99.90;;;;;;5051641;28;19987;-42
2023/04/13 01:44:01;;;;;;;;;;;6.50;99.90;;;;;;5051597;28;19984;-44
2023/04/13 01:46:29;;;;;;;;;;;6.50;99.90;;;;;;5049070;28;20341;-43
2023/04/13 01:48:56;;;;;;;;;;;6.50;99.90;;;;;;5049792;28;19960;-45
2023/04/13 01:51:24;;;;;;;;;;;6.50;99.90;;;;;;5041040;28;19977;-45
2023/04/13 01:53:52;;;;;;;;;;;6.50;99.90;;;;;;5056248;28;19959;-43
2023/04/13 01:56:21;;;;;;;;;;;6.50;99.90;;;;;;5051657;28;19931;-40
2023/04/13 01:58:50;;;;;;;;;;;6.50;99.90;;;;;;5049452;28;20040;-39
2023/04/13 02:01:17;;;;;;;;;;;6.50;99.90;;;;;;5050099;28;20031;-40
2023/04/13 02:03:45;;;;;;;;;;;6.50;99.90;;;;;;5051215;28;19945;-43
2023/04/13 02:06:11;;;;;;;;;;;6.50;99.90;;;;;;5051379;28;19937;-40
2023/04/13 02:08:39;;;;;;;;;;;6.50;99.90;;;;;;5045073;28;19981;-41
2023/04/13 02:11:06;;;;;;;;;;;6.50;99.90;;;;;;5044981;28;20457;-41
2023/04/13 02:13:33;;;;;;;;;;;6.50;99.90;;;;;;5060134;28;19947;-40
2023/04/13 02:15:59;;;;;;;;;;;6.50;99.90;;;;;;5052079;28;20449;-41
2023/04/13 02:18:26;;;;;;;;;;;6.50;99.90;;;;;;5049680;28;20432;-43
2023/04/13 02:21:00;;;;;;;;;;;6.50;99.90;;;;;;5050058;28;19995;-42
2023/04/13 02:23:27;;;;;;;;;;;6.50;99.90;;;;;;5051652;28;19944;-41
2023/04/13 02:25:54;;;;;;;;;;;6.50;99.90;;;;;;5049959;28;20396;-40
2023/04/13 02:28:21;;;;;;;;;;;6.50;99.90;;;;;;5052026;28;20231;-40
2023/04/13 02:30:47;;;;;;;;;;;6.50;99.90;;;;;;5050811;28;19984;-42
2023/04/13 02:33:14;;;;;;;;;;;6.40;99.90;;;;;;5049521;28;20006;-40
2023/04/13 02:35:41;;;;;;;;;;;6.40;99.90;;;;;;5050057;28;19990;-41
2023/04/13 02:38:10;;;;;;;;;;;6.50;99.90;;;;;;5059827;28;19933;-40
2023/04/13 02:40:37;;;;;;;;;;;6.40;99.90;;;;;;5076801;28;20028;-39
2023/04/13 02:43:04;;;;;;;;;;;6.40;99.90;;;;;;5052871;28;19932;-39
2023/04/13 02:45:31;;;;;;;;;;;6.40;99.90;;;;;;5054642;28;19940;-41
2023/04/13 02:47:58;;;;;;;;;;;6.40;99.90;;;;;;5054756;28;19936;-40
2023/04/13 02:50:24;;;;;;;;;;;6.40;99.90;;;;;;5054754;28;20021;-40
2023/04/13 02:52:52;;;;;;;;;;;6.40;99.90;;;;;;5054936;28;19960;-41
2023/04/13 02:55:20;;;;;;;;;;;6.40;99.90;;;;;;5056038;28;20318;-40
2023/04/13 02:57:48;;;;;;;;;;;6.40;99.90;;;;;;5066491;28;19942;-41
2023/04/13 03:00:15;;;;;;;;;;;6.40;99.90;;;;;;5062634;28;19948;-43
2023/04/13 03:02:43;;;;;;;;;;;6.40;99.90;;;;;;5053572;28;19991;-42
2023/04/13 03:05:10;;;;;;;;;;;6.40;99.90;;;;;;5056577;28;20381;-41
2023/04/13 03:07:36;;;;;;;;;;;6.40;99.90;;;;;;5054353;28;19989;-41
2023/04/13 03:10:04;;;;;;;;;;;6.40;99.90;;;;;;5054566;28;19938;-40
2023/04/13 03:12:32;;;;;;;;;;;6.40;99.90;;;;;;5052154;28;19947;-40
2023/04/13 03:15:01;;;;;;;;;;;6.40;99.90;;;;;;5042962;28;19987;-40
2023/04/13 03:17:28;;;;;;;;;;;6.40;99.90;;;;;;5051749;28;19953;-40
2023/04/13 03:19:55;;;;;;;;;;;6.40;99.90;;;;;;5040138;28;19935;-41
2023/04/13 03:22:22;;;;;;;;;;;6.40;99.90;;;;;;5053882;28;19937;-41
2023/04/13 03:24:48;;;;;;;;;;;6.50;99.90;;;;;;5045541;28;19975;-42
2023/04/13 03:27:16;;;;;;;;;;;6.40;99.90;;;;;;5048695;28;19988;-40
2023/04/13 03:29:45;;;;;;;;;;;6.40;99.90;;;;;;5052679;28;20327;-41
2023/04/13 03:32:11;;;;;;;;;;;6.50;99.90;;;;;;5050651;28;20377;-40
2023/04/13 03:34:42;;;;;;;;;;;6.40;99.90;;;;;;5063382;28;20358;-43
2023/04/13 03:37:09;;;;;;;;;;;6.40;99.90;;;;;;5047016;28;19939;-46
2023/04/13 03:39:36;;;;;;;;;;;6.50;99.90;;;;;;5049073;28;20419;-41
2023/04/13 03:42:03;;;;;;;;;;;6.50;99.90;;;;;;5050711;28;20360;-42
2023/04/13 03:44:29;;;;;;;;;;;6.40;99.90;;;;;;5053229;28;20006;-42
2023/04/13 03:46:57;;;;;;;;;;;6.50;99.90;;;;;;5049033;28;19945;-39
2023/04/13 03:49:24;;;;;;;;;;;6.50;99.90;;;;;;5053393;28;20055;-42
2023/04/13 03:51:51;;;;;;;;;;;6.40;99.90;;;;;;5050041;28;19940;-40
2023/04/13 03:54:17;;;;;;;;;;;6.50;99.90;;;;;;5047251;28;20365;-40
2023/04/13 03:56:44;;;;;;;;;;;6.40;99.90;;;;;;5051949;28;20506;-40
2023/04/13 03:59:11;;;;;;;;;;;6.40;99.90;;;;;;5051319;28;19935;-41
2023/04/13 04:01:37;;;;;;;;;;;6.50;99.90;;;;;;5048815;28;19963;-42
2023/04/13 04:04:05;;;;;;;;;;;6.60;99.90;;;;;;5041936;28;19932;-43
2023/04/13 04:06:32;;;;;;;;;;;6.50;99.90;;;;;;5052040;28;19947;-42
2023/04/13 04:08:59;;;;;;;;;;;6.50;99.90;;;;;;5052131;28;20382;-40
2023/04/13 04:11:25;;;;;;;;;;;6.60;99.90;;;;;;5060306;28;19947;-40
2023/04/13 04:13:52;;;;;;;;;;;6.60;99.90;;;;;;5049639;28;20039;-43
2023/04/13 04:16:19;;;;;;;;;;;6.60;99.90;;;;;;5036109;28;19979;-41
2023/04/13 04:18:45;;;;;;;;;;;6.60;99.90;;;;;;5039053;28;20003;-40
2023/04/13 04:21:14;;;;;;;;;;;6.60;99.90;;;;;;5046722;28;19999;-40
2023/04/13 04:23:41;;;;;;;;;;;6.60;99.90;;;;;;5043571;28;19984;-41
2023/04/13 04:26:07;;;;;;;;;;;6.60;99.90;;;;;;5047012;28;19972;-40
2023/04/13 04:28:37;;;;;;;;;;;6.60;99.90;;;;;;5043767;28;19937;-39
2023/04/13 04:31:05;;;;;;;;;;;6.70;99.90;;;;;;5046914;28;20409;-40
2023/04/13 04:33:32;;;;;;;;;;;6.60;99.90;;;;;;5052139;28;19953;-40
2023/04/13 04:36:00;;;;;;;;;;;6.60;99.90;;;;;;5041175;28;19992;-40
2023/04/13 04:38:31;;;;;;;;;;;6.60;99.90;;;;;;5048225;28;20034;-41
2023/04/13 04:40:58;;;;;;;;;;;6.60;99.90;;;;;;5072411;28;19934;-39
2023/04/13 04:43:25;;;;;;;;;;;6.60;99.90;;;;;;5057567;28;20030;-41
2023/04/13 04:45:56;;;;;;;;;;;6.60;99.90;;;;;;5050632;28;19967;-39
2023/04/13 04:48:23;;;;;;;;;;;6.60;99.90;;;;;;5057537;28;19944;-39
2023/04/13 04:50:51;;;;;;;;;;;6.60;99.90;;;;;;5049847;28;19943;-41
2023/04/13 04:53:18;;;;;;;;;;;6.60;99.90;;;;;;5051863;28;19943;-41
2023/04/13 04:55:46;;;;;;;;;;;6.60;99.90;;;;;;5051166;28;19983;-40
2023/04/13 04:58:13;;;;;;;;;;;6.60;99.90;;;;;;5055305;28;19939;-40
2023/04/13 05:00:39;;;;;;;;;;;6.50;99.90;;;;;;5051111;28;19985;-40
2023/04/13 05:03:07;;;;;;;;;;;6.60;99.90;;;;;;5054327;28;19976;-41
2023/04/13 05:05:34;;;;;;;;;;;6.50;99.90;;;;;;5064412;28;19943;-40
2023/04/13 05:08:00;;;;;;;;;;;6.50;99.90;;;;;;5050578;28;19961;-40
2023/04/13 05:10:28;;;;;;;;;;;6.50;99.90;;;;;;5062804;28;20387;-39
2023/04/13 05:12:56;;;;;;;;;;;6.40;99.90;;;;;;5066146;28;19937;-39
2023/04/13 05:15:23;;;;;;;;;;;6.40;99.90;;;;;;5051551;28;19958;-39
2023/04/13 05:17:49;;;;;;;;;;;6.40;99.90;;;;;;5047287;28;20093;-40
2023/04/13 05:20:16;;;;;;;;;;;6.40;99.90;;;;;;5046695;28;19955;-40
2023/04/13 05:22:46;;;;;;;;;;;6.30;99.90;;;;;;5051087;28;20001;-40
2023/04/13 05:25:13;;;;;;;;;;;6.30;99.90;;;;;;5063776;28;20031;-40
2023/04/13 05:27:40;;;;;;;;;;;6.30;99.90;;;;;;5063834;28;20405;-41
2023/04/13 05:30:09;;;;;;;;;;;6.30;99.90;;;;;;5050146;28;20485;-40
2023/04/13 05:32:36;;;;;;;;;;;6.30;99.90;;;;;;5065201;28;19942;-40
2023/04/13 05:35:03;;;;;;;;;;;6.30;99.90;;;;;;5050199;28;19953;-38
2023/04/13 05:37:29;;;;;;;;;;;6.30;99.90;;;;;;5063018;28;19940;-39
2023/04/13 05:39:57;;;;;;;;;;;6.30;99.90;;;;;;5050371;28;19936;-40
2023/04/13 05:42:24;;;;;;;;;;;6.40;99.90;;;;;;5051155;28;19937;-40
2023/04/13 05:44:50;;;;;;;;;;;6.40;99.90;;;;;;5052178;28;19990;-42
2023/04/13 05:47:20;;;;;;;;;;;6.50;99.90;;;;;;5052885;28;20455;-41
2023/04/13 05:49:47;;;;;;;;;;;6.40;99.90;;;;;;5048633;28;20028;-40
2023/04/13 05:52:14;;;;;;;;;;;6.50;99.90;;;;;;5048763;28;19939;-40
2023/04/13 05:54:40;;;;;;;;;;;6.50;99.90;;;;;;5051382;28;19949;-40
2023/04/13 05:57:07;;;;;;;;;;;6.50;99.90;;;;;;5047218;28;19995;-40
2023/04/13 05:59:34;;;;;;;;;;;6.60;99.90;;;;;;5046414;28;19945;-40
2023/04/13 06:02:01;;;;;;;;;;;6.60;99.90;;;;;;5063802;28;19931;-39
2023/04/13 06:04:30;;;;;;;;;;;6.70;99.90;;;;;;5045435;28;20407;-39
2023/04/13 06:06:56;;;;;;;;;;;6.70;99.90;;;;;;5040843;28;19982;-40
2023/04/13 06:09:23;;;;;;;;;;;6.70;99.90;;;;;;5047582;28;20445;-40
2023/04/13 06:11:50;;;;;;;;;;;6.70;99.90;;;;;;5050616;28;20341;-39
2023/04/13 06:14:17;;;;;;;;;;;6.80;99.90;;;;;;5054219;28;19952;-40
2023/04/13 06:16:43;;;;;;;;;;;6.70;99.90;;;;;;5055846;28;19992;-39
2023/04/13 06:19:11;;;;;;;;;;;6.80;99.90;;;;;;5056140;28;20312;-39
2023/04/13 06:21:39;;;;;;;;;;;6.80;99.90;;;;;;5054765;28;19932;-39
2023/04/13 06:24:06;;;;;;;;;;;6.80;99.90;;;;;;5055141;28;19924;-40
2023/04/13 06:26:33;;;;;;;;;;;6.90;99.90;;;;;;5056253;28;19982;-39
2023/04/13 06:29:00;;;;;;;;;;;6.90;99.90;;;;;;5056191;28;19940;-38
2023/04/13 06:31:27;;;;;;;;;;;7.00;99.90;;;;;;5054806;28;20024;-40
2023/04/13 06:33:53;;;;;;;;;;;7.00;99.90;;;;;;5054745;28;20407;-39
2023/04/13 06:36:20;;;;;;;;;;;7.10;99.90;;;;;;5054683;28;20388;-40
2023/04/13 06:38:48;;;;;;;;;;;7.20;99.90;;;;;;5055931;28;20067;-39
2023/04/13 06:41:15;;;;;;;;;;;7.30;99.90;;;;;;5056075;28;19937;-40
2023/04/13 06:43:41;;;;;;;;;;;7.40;99.90;;;;;;5041566;28;19937;-39
2023/04/13 06:46:08;;;;;;;;;;;7.40;99.90;;;;;;5052411;28;20394;-39
2023/04/13 06:48:35;;;;;;;;;;;7.60;99.90;;;;;;5054144;28;19972;-39
2023/04/13 06:51:01;;;;;;;;;;;7.60;99.90;;;;;;5056262;28;19976;-39
2023/04/13 06:53:28;;;;;;;;;;;7.60;99.90;;;;;;5055347;28;19940;-40
2023/04/13 06:55:56;;;;;;;;;;;7.60;99.90;;;;;;5055676;28;20047;-40
2023/04/13 06:58:23;;;;;;;;;;;7.70;99.90;;;;;;5054615;28;19935;-40
2023/04/13 07:00:49;;;;;;;;;;;7.70;99.90;;;;;;5047649;28;19937;-40
2023/04/13 07:03:16;;;;;;;;;;;7.70;99.90;;;;;;5049439;28;20437;-40
2023/04/13 07:05:43;;;;;;;;;;;7.70;99.90;;;;;;5055454;28;20031;-39
2023/04/13 07:08:10;;;;;;;;;;;7.70;99.90;;;;;;5055210;28;20405;-39
2023/04/13 07:10:39;;;;;;;;;;;7.70;99.90;;;;;;5054219;28;19939;-39
2023/04/13 07:13:07;;;;;;;;;;;7.70;99.90;;;;;;5052867;28;19977;-38
2023/04/13 07:15:35;;;;;;;;;;;7.70;99.90;;;;;;5055240;28;20015;-39
2023/04/13 07:18:02;;;;;;;;;;;7.70;99.90;;;;;;5054842;28;20443;-40
2023/04/13 07:20:29;;;;;;;;;;;7.70;99.90;;;;;;5055060;28;20414;-39
2023/04/13 07:22:55;;;;;;;;;;;7.70;99.90;;;;;;5054936;28;19945;-38
2023/04/13 07:25:22;;;;;;;;;;;7.80;99.90;;;;;;5055112;28;19943;-39
2023/04/13 07:27:49;;;;;;;;;;;7.90;99.90;;;;;;5055089;28;20030;-39
2023/04/13 07:30:17;;;;;;;;;;;7.90;99.90;;;;;;5054924;28;20039;-39
2023/04/13 07:32:44;;;;;;;;;;;8.00;99.90;;;;;;5055006;28;20027;-39
2023/04/13 07:35:10;;;;;;;;;;;8.10;99.90;;;;;;5054755;28;20367;-39
2023/04/13 07:37:37;;;;;;;;;;;8.20;99.90;;;;;;5053852;28;19999;-39
2023/04/13 07:40:05;;;;;;;;;;;8.30;99.90;;;;;;5053914;28;20438;-39
2023/04/13 07:42:32;;;;;;;;;;;8.40;99.90;;;;;;5039977;28;19992;-39
2023/04/13 07:44:58;;;;;;;;;;;8.40;99.90;;;;;;5034652;28;19991;-38
2023/04/13 07:47:26;;;;;;;;;;;8.40;99.90;;;;;;5050500;28;19979;-39
2023/04/13 07:49:53;;;;;;;;;;;8.40;99.90;;;;;;5034931;28;19987;-39
2023/04/13 07:52:20;;;;;;;;;;;8.40;99.90;;;;;;5039996;28;19983;-40
2023/04/13 07:54:46;;;;;;;;;;;8.30;99.90;;;;;;5053369;28;20018;-39
2023/04/13 07:57:13;;;;;;;;;;;8.30;99.90;;;;;;5053467;28;20028;-40
2023/04/13 07:59:39;;;;;;;;;;;8.20;99.90;;;;;;5054365;28;20376;-39
2023/04/13 08:02:06;;;;;;;;;;;8.20;99.90;;;;;;5054424;28;19972;-40
2023/04/13 08:04:34;;;;;;;;;;;8.10;99.90;;;;;;5054269;28;20351;-39
2023/04/13 08:07:02;;;;;;;;;;;8.10;99.90;;;;;;5054174;28;19977;-39
2023/04/13 08:09:31;;;;;;;;;;;8.20;99.90;;;;;;5053549;28;19992;-40
2023/04/13 08:11:58;;;;;;;;;;;8.20;99.90;;;;;;5048833;28;20382;-40
2023/04/13 08:14:25;;;;;;;;;;;8.10;99.90;;;;;;5053121;28;20377;-40
2023/04/13 08:16:51;;;;;;;;;;;8.10;99.90;;;;;;5054108;28;19972;-39
2023/04/13 08:19:18;;;;;;;;;;;8.10;99.90;;;;;;5053008;28;19941;-39
2023/04/13 08:21:46;;;;;;;;;;;8.20;99.90;;;;;;5053361;28;19945;-40
2023/04/13 08:24:12;;;;;;;;;;;8.20;99.90;;;;;;5052887;28;19937;-40
2023/04/13 08:26:39;;;;;;;;;;;8.30;99.90;;;;;;5053059;28;19940;-40
2023/04/13 08:29:06;;;;;;;;;;;8.40;99.90;;;;;;5052721;28;19975;-41
2023/04/13 08:31:32;;;;;;;;;;;8.40;99.90;;;;;;5052840;28;19937;-39
2023/04/13 08:33:59;;;;;;;;;;;8.50;99.90;;;;;;5053836;28;20396;-40
2023/04/13 08:36:26;;;;;;;;;;;8.50;99.90;;;;;;5052556;28;20016;-39
2023/04/13 08:38:54;;;;;;;;;;;8.50;99.90;;;;;;5052975;28;19988;-39
2023/04/13 08:41:21;;;;;;;;;;;8.40;99.90;;;;;;5052967;28;19988;-39
2023/04/13 08:43:48;;;;;;;;;;;8.30;99.90;;;;;;5053581;28;19945;-38
2023/04/13 08:46:18;;;;;;;;;;;8.30;99.90;;;;;;5052596;28;20002;-38
2023/04/13 08:48:45;;;;;;;;;;;8.30;99.90;;;;;;5053507;28;20495;-38
2023/04/13 08:51:11;;;;;;;;;;;8.20;99.90;;;;;;5053374;28;20135;-40
2023/04/13 08:53:38;;;;;;;;;;;8.20;99.90;;;;;;5052606;28;19999;-38
2023/04/13 08:56:07;;;;;;;;;;;8.20;99.90;;;;;;5053473;28;20463;-39
2023/04/13 08:58:33;;;;;;;;;;;8.10;99.90;;;;;;5049598;28;20007;-39
2023/04/13 09:01:00;;;;;;;;;;;8.10;99.90;;;;;;5037071;28;19940;-44
2023/04/13 09:03:28;;;;;;;;;;;8.10;99.90;;;;;;5052240;28;19993;-42
2023/04/13 09:05:57;;;;;;;;;;;8.00;99.90;;;;;;5052512;28;19993;-40
2023/04/13 09:08:24;;;;;;;;;;;7.90;99.90;;;;;;5052392;28;19937;-39
2023/04/13 09:10:51;;;;;;;;;;;7.90;99.90;;;;;;5053279;28;19950;-39
2023/04/13 09:13:20;;;;;;;;;;;8.00;99.90;;;;;;5053119;28;20008;-39
2023/04/13 09:15:47;;;;;;;;;;;8.20;99.90;;;;;;5053029;28;19953;-39
2023/04/13 09:18:14;;;;;;;;;;;8.40;99.90;;;;;;5051318;28;20343;-39
2023/04/13 09:20:41;;;;;;;;;;;8.60;99.90;;;;;;5051944;28;20388;-39
2023/04/13 09:23:14;;;;;;;;;;;8.60;99.90;;;;;;5052863;28;19937;-39
2023/04/13 09:25:41;;;;;;;;;;;8.60;99.90;;;;;;5053108;28;20388;-39
2023/04/13 09:28:15;;;;;;;;;;;8.60;99.90;;;;;;5052636;28;19940;-39
2023/04/13 09:30:43;;;;;;;;;;;8.60;99.90;;;;;;5052086;28;19940;-40
2023/04/13 09:33:10;;;;;;;;;;;8.60;99.90;;;;;;5053014;28;20019;-39
2023/04/13 09:35:37;;;;;;;;;;;8.80;99.90;;;;;;5051453;28;20047;-39
2023/04/13 09:38:03;;;;;;;;;;;8.90;99.90;;;;;;5052608;28;20363;-39
2023/04/13 09:40:31;;;;;;;;;;;9.00;99.90;;;;;;5051220;28;20309;-39
2023/04/13 09:43:00;;;;;;;;;;;9.20;99.90;;;;;;5051659;28;19942;-39
2023/04/13 09:45:32;;;;;;;;;;;9.30;99.90;;;;;;5052511;28;20328;-39
2023/04/13 09:48:01;;;;;;;;;;;9.50;99.90;;;;;;5052686;28;19993;-39
2023/04/13 09:50:30;;;;;;;;;;;9.60;99.90;;;;;;5051642;28;19990;-38
2023/04/13 09:53:00;;;;;;;;;;;9.80;99.90;;;;;;5051559;28;19948;-38
2023/04/13 09:55:27;;;;;;;;;;;9.90;99.90;;;;;;5052363;28;19996;-37
2023/04/13 09:57:54;;;;;;;;;;;10.10;99.90;;;;;;5050604;28;19935;-37
2023/04/13 10:00:22;;;;;;;;;;;10.20;99.90;;;;;;5051263;28;19994;-38
2023/04/13 10:02:49;;;;;;;;;;;10.20;99.90;;;;;;5051525;28;20031;-38
2023/04/13 10:05:18;;;;;;;;;;;10.10;99.90;;;;;;5051340;28;20030;-39
2023/04/13 10:07:44;;;;;;;;;;;10.10;99.90;;;;;;5051563;28;20008;-39
2023/04/13 10:10:11;;;;;;;;;;;10.00;99.90;;;;;;5051406;28;19988;-38
2023/04/13 10:12:38;;;;;;;;;;;10.00;99.90;;;;;;5050103;28;20281;-38
2023/04/13 10:15:08;;;;;;;;;;;10.00;99.90;;;;;;5051191;28;19949;-38
2023/04/13 10:17:38;;;;;;;;;;;9.90;99.90;;;;;;5050902;28;20101;-38
2023/04/13 10:20:10;;;;;;;;;;;9.80;99.90;;;;;;5050421;28;19938;-38
2023/04/13 10:22:38;;;;;;;;;;;9.70;99.90;;;;;;5052225;28;20022;-38
2023/04/13 10:25:05;;;;;;;;;;;9.60;99.90;;;;;;5051907;28;19937;-38
2023/04/13 10:27:34;;;;;;;;;;;9.70;99.90;;;;;;5051876;28;19943;-38
2023/04/13 10:30:02;;;;;;;;;;;9.80;99.90;;;;;;5052098;28;19946;-38
2023/04/13 10:32:30;;;;;;;;;;;10.10;99.90;;;;;;5051187;28;19997;-38
2023/04/13 10:34:57;;;;;;;;;;;10.40;99.90;;;;;;5051046;28;20394;-38
2023/04/13 10:37:24;;;;;;;;;;;10.70;99.90;;;;;;5051703;28;19984;-37
2023/04/13 10:40:04;;;;;;;;;;;10.90;99.90;;;;;;5051927;28;20352;-38
2023/04/13 10:42:38;;;;;;;;;;;11.20;99.90;;;;;;5050185;28;19944;-38
2023/04/13 10:45:06;;;;;;;;;;;11.20;99.90;;;;;;5051847;28;19940;-38
2023/04/13 10:47:35;;;;;;;;;;;11.00;99.90;;;;;;5051340;28;19937;-37
2023/04/13 10:50:02;;;;;;;;;;;11.00;99.90;;;;;;5050406;28;19937;-37
2023/04/13 10:52:30;;;;;;;;;;;10.80;99.90;;;;;;5051580;28;19936;-39
2023/04/13 10:54:57;;;;;;;;;;;10.80;99.90;;;;;;5050507;28;19937;-38
2023/04/13 10:57:25;;;;;;;;;;;10.70;99.90;;;;;;5049214;28;19968;-39
2023/04/13 10:59:52;;;;;;;;;;;10.60;99.90;;;;;;5054244;28;20448;-38
2023/04/13 11:02:19;;;;;;;;;;;10.70;99.90;;;;;;5055420;28;19942;-38
2023/04/13 11:04:46;;;;;;;;;;;10.70;99.90;;;;;;5054420;28;19989;-38
2023/04/13 11:07:14;;;;;;;;;;;10.90;99.90;;;;;;5055315;28;19993;-38
2023/04/13 11:09:40;;;;;;;;;;;11.10;99.90;;;;;;5053381;28;20446;-37
2023/04/13 11:12:07;;;;;;;;;;;11.20;99.90;;;;;;5055458;28;19989;-38
2023/04/13 11:14:37;;;;;;;;;;;11.20;99.90;;;;;;5055334;28;19990;-37
2023/04/13 11:17:04;;;;;;;;;;;11.20;99.90;;;;;;5054958;28;20411;-37
2023/04/13 11:19:31;;;;;;;;;;;11.20;99.90;;;;;;5054378;28;19937;-37
2023/04/13 11:21:58;;;;;;;;;;;11.10;99.90;;;;;;5054331;28;19944;-38
2023/04/13 11:24:28;;;;;;;;;;;11.00;99.90;;;;;;5054968;28;19972;-37
2023/04/13 11:26:56;;;;;;;;;;;10.90;99.90;;;;;;5054376;28;19937;-38
2023/04/13 11:29:23;;;;;;;;;;;10.90;99.90;;;;;;5052916;28;19983;-38
2023/04/13 11:31:51;;;;;;;;;;;10.90;99.90;;;;;;5054915;28;19937;-38
2023/04/13 11:34:27;;;;;;;;;;;10.80;99.90;;;;;;5054838;28;19946;-37
2023/04/13 11:37:00;;;;;;;;;;;10.80;99.90;;;;;;5056436;28;19975;-38
2023/04/13 11:39:27;;;;;;;;;;;10.80;99.90;;;;;;5045431;28;20028;-38
2023/04/13 11:41:53;;;;;;;;;;;10.90;99.90;;;;;;5054397;28;20419;-37
2023/04/13 11:44:21;;;;;;;;;;;10.90;99.90;;;;;;5066597;28;20044;-38
2023/04/13 11:46:47;;;;;;;;;;;10.90;99.90;;;;;;5074361;28;20323;-38
2023/04/13 11:49:16;;;;;;;;;;;10.90;99.90;;;;;;5071246;28;20017;-38
2023/04/13 11:51:42;;;;;;;;;;;10.90;99.90;;;;;;5068043;28;19983;-37
2023/04/13 11:54:10;;;;;;;;;;;10.90;99.90;;;;;;5074637;28;19990;-38
2023/04/13 11:56:39;;;;;;;;;;;10.90;99.90;;;;;;5070582;28;20000;-38
2023/04/13 11:59:07;;;;;;;;;;;10.90;99.90;;;;;;5055343;28;20430;-38
2023/04/13 12:01:34;;;;;;;;;;;10.90;99.90;;;;;;5073346;28;19945;-39
2023/04/13 12:04:04;;;;;;;;;;;11.00;99.90;;;;;;5073235;28;19990;-38
2023/04/13 12:06:33;;;;;;;;;;;11.10;99.90;;;;;;5067390;28;19965;-37
2023/04/13 12:09:00;;;;;;;;;;;11.20;99.90;;;;;;5054159;28;19950;-38
2023/04/13 12:11:26;;;;;;;;;;;11.20;99.90;;;;;;5061379;28;20277;-39
2023/04/13 12:13:55;;;;;;;;;;;11.30;99.90;;;;;;5055745;28;20292;-37
2023/04/13 12:16:25;;;;;;;;;;;11.30;99.90;;;;;;5061803;28;20013;-38
2023/04/13 12:18:52;;;;;;;;;;;11.30;99.90;;;;;;5073489;28;19959;-39
2023/04/13 12:21:19;;;;;;;;;;;11.40;99.90;;;;;;5070658;28;19993;-39
2023/04/13 12:23:53;;;;;;;;;;;11.40;99.90;;;;;;5054815;28;19947;-38
2023/04/13 12:26:20;;;;;;;;;;;11.50;99.90;;;;;;5054315;28;19991;-38
2023/04/13 12:28:47;;;;;;;;;;;11.50;99.90;;;;;;5067333;28;19937;-38
2023/04/13 12:31:13;;;;;;;;;;;11.50;99.90;;;;;;5050017;28;19962;-38
2023/04/13 12:33:40;;;;;;;;;;;11.40;99.90;;;;;;5052568;28;19942;-39
2023/04/13 12:36:10;;;;;;;;;;;11.40;99.90;;;;;;5053782;28;19995;-39
2023/04/13 12:38:36;;;;;;;;;;;11.30;99.90;;;;;;5052626;28;19960;-38
2023/04/13 12:41:04;;;;;;;;;;;11.30;99.90;;;;;;5052453;28;20457;-38
2023/04/13 12:43:31;;;;;;;;;;;11.30;99.90;;;;;;5052386;28;19936;-38
2023/04/13 12:45:57;;;;;;;;;;;11.30;99.90;;;;;;5053384;28;19937;-39
2023/04/13 12:48:24;;;;;;;;;;;11.30;99.90;;;;;;5053086;28;20353;-38
2023/04/13 12:50:51;;;;;;;;;;;11.50;99.90;;;;;;5053609;28;19933;-39
2023/04/13 12:53:18;;;;;;;;;;;11.60;99.90;;;;;;5052558;28;20371;-38
2023/04/13 12:55:44;;;;;;;;;;;11.80;99.90;;;;;;5053326;28;20023;-38
2023/04/13 12:58:12;;;;;;;;;;;11.90;99.90;;;;;;5053329;28;20287;-39
2023/04/13 13:00:39;;;;;;;;;;;12.10;99.90;;;;;;5053297;28;19975;-38
2023/04/13 13:03:06;;;;;;;;;;;12.30;99.90;;;;;;5052931;28;20315;-39
2023/04/13 13:05:32;;;;;;;;;;;12.50;99.90;;;;;;5053186;28;19947;-37
2023/04/13 13:07:59;;;;;;;;;;;12.70;99.90;;;;;;5053262;28;19937;-38
2023/04/13 13:10:26;;;;;;;;;;;12.80;99.90;;;;;;5053169;28;19990;-38
2023/04/13 13:12:52;;;;;;;;;;;12.70;99.90;;;;;;5052943;28;19996;-38
2023/04/13 13:15:20;;;;;;;;;;;12.70;99.90;;;;;;5051944;28;19941;-39
2023/04/13 13:17:47;;;;;;;;;;;12.70;99.90;;;;;;5051295;28;20001;-38
2023/04/13 13:20:14;;;;;;;;;;;12.60;99.90;;;;;;5052667;28;20000;-37
2023/04/13 13:22:41;;;;;;;;;;;12.50;99.90;;;;;;5053359;28;20334;-37
2023/04/13 13:25:09;;;;;;;;;;;12.40;99.90;;;;;;5052613;28;19980;-39
2023/04/13 13:27:35;;;;;;;;;;;12.40;99.90;;;;;;5064072;28;19983;-38
2023/04/13 13:30:09;;;;;;;;;;;12.30;99.90;;;;;;5053364;28;19955;-38
2023/04/13 13:32:37;;;;;;;;;;;12.30;99.90;;;;;;5060171;28;19939;-38
2023/04/13 13:35:04;;;;;;;;;;;12.40;99.90;;;;;;5057894;28;19983;-38
2023/04/13 13:37:30;;;;;;;;;;;12.60;99.90;;;;;;5051123;28;20045;-37
2023/04/13 13:39:57;;;;;;;;;;;12.80;99.90;;;;;;5051883;28;20451;-37
2023/04/13 13:42:24;;;;;;;;;;;12.90;99.90;;;;;;5052507;28;19998;-38
2023/04/13 13:44:50;;;;;;;;;;;12.90;99.90;;;;;;5066215;28;19944;-38
2023/04/13 13:47:17;;;;;;;;;;;12.80;99.90;;;;;;5067293;28;19990;-38
2023/04/13 13:49:45;;;;;;;;;;;12.70;99.90;;;;;;5069248;28;19933;-38
2023/04/13 13:52:12;;;;;;;;;;;12.60;99.90;;;;;;5069706;28;20049;-38
2023/04/13 13:54:38;;;;;;;;;;;12.60;99.90;;;;;;5064934;28;20029;-37
2023/04/13 13:57:05;;;;;;;;;;;12.60;99.90;;;;;;5053545;28;20043;-38
2023/04/13 13:59:32;;;;;;;;;;;12.60;99.90;;;;;;5061667;28;19986;-39
2023/04/13 14:01:59;;;;;;;;;;;12.60;99.90;;;;;;5051923;28;19981;-37
2023/04/13 14:04:25;;;;;;;;;;;12.50;99.90;;;;;;5051194;28;20039;-38
2023/04/13 14:06:53;;;;;;;;;;;12.50;99.90;;;;;;5068400;28;19985;-38
2023/04/13 14:09:20;;;;;;;;;;;12.50;99.90;;;;;;5067668;28;20040;-39
2023/04/13 14:11:47;;;;;;;;;;;12.50;99.90;;;;;;5062471;28;19938;-38
2023/04/13 14:14:13;;;;;;;;;;;12.40;99.90;;;;;;5060833;28;19934;-37
2023/04/13 14:16:40;;;;;;;;;;;12.40;99.90;;;;;;5067268;28;19963;-38
2023/04/13 14:19:07;;;;;;;;;;;12.50;99.90;;;;;;5068720;28;19979;-39
2023/04/13 14:21:34;;;;;;;;;;;12.50;99.90;;;;;;5063492;28;20025;-38
2023/04/13 14:24:02;;;;;;;;;;;12.50;99.90;;;;;;5035596;28;19937;-36
2023/04/13 14:26:28;;;;;;;;;;;12.50;99.90;;;;;;5066875;28;19941;-37